Time;durP1;ratioP1;P1;durP2;ratioP2;P2;SDS_P1;SDS_P2;PMS_P1;PMS_P2;Temp;Humidity;BMP_temperature;BMP_pressure;BME280_temperature;BME280_humidity;BME280_pressure;Samples;Min_cycle;Max_cycle;Signal;HPM_P1;HPM_P2
2022/05/27 00:01:07;;;;;;;5.63;2.40;;;16.30;42.70;;;;;;5053416;28;20403;-82
2022/05/27 00:03:33;;;;;;;8.40;2.53;;;16.30;42.70;;;;;;5042117;28;20418;-84
2022/05/27 00:05:58;;;;;;;3.55;2.60;;;16.30;43.00;;;;;;5043239;28;20436;-85
2022/05/27 00:08:25;;;;;;;6.05;2.60;;;16.30;43.00;;;;;;5043473;28;20732;-84
2022/05/27 00:10:51;;;;;;;7.50;3.08;;;16.30;43.20;;;;;;5042703;28;20392;-82
2022/05/27 00:13:17;;;;;;;7.78;3.00;;;16.30;43.50;;;;;;5041342;28;20399;-84
2022/05/27 00:15:43;;;;;;;6.85;2.95;;;16.20;43.40;;;;;;5040724;28;20389;-84
2022/05/27 00:18:08;;;;;;;5.95;2.72;;;16.30;43.50;;;;;;5039091;28;20415;-82
2022/05/27 00:20:36;;;;;;;9.57;2.95;;;16.30;43.60;;;;;;5040914;28;20387;-83
2022/05/27 00:23:05;;;;;;;6.22;2.60;;;16.30;43.40;;;;;;5042673;28;20426;-83
2022/05/27 00:25:30;;;;;;;6.35;3.45;;;16.30;43.40;;;;;;5043467;28;20406;-86
2022/05/27 00:27:57;;;;;;;6.53;2.63;;;16.20;43.90;;;;;;5042839;28;20379;-86
2022/05/27 00:30:23;;;;;;;9.52;3.40;;;16.30;44.00;;;;;;5046224;28;20463;-83
2022/05/27 00:32:49;;;;;;;5.13;2.97;;;16.20;43.90;;;;;;5042395;28;20876;-83
2022/05/27 00:35:15;;;;;;;6.40;3.00;;;16.20;44.90;;;;;;5043040;28;20387;-84
2022/05/27 00:37:40;;;;;;;6.18;2.92;;;16.20;44.00;;;;;;5044473;28;20391;-83
2022/05/27 00:40:08;;;;;;;5.10;2.97;;;16.20;43.90;;;;;;5044041;28;20407;-82
2022/05/27 00:42:33;;;;;;;7.03;3.05;;;16.30;43.80;;;;;;5048218;28;20383;-83
2022/05/27 00:44:59;;;;;;;9.25;3.38;;;16.30;44.10;;;;;;5054570;28;20395;-81
2022/05/27 00:47:27;;;;;;;5.63;2.80;;;16.20;44.20;;;;;;5054470;28;20466;-83
2022/05/27 00:50:00;;;;;;;5.18;2.72;;;16.20;44.40;;;;;;5054839;28;20726;-82
2022/05/27 00:52:30;;;;;;;4.97;3.15;;;16.30;44.00;;;;;;5046147;28;20471;-83
2022/05/27 00:54:56;;;;;;;6.47;2.95;;;16.30;44.10;;;;;;5056772;23;20431;-84
2022/05/27 00:57:32;;;;;;;6.45;3.08;;;16.30;44.70;;;;;;5041964;28;20690;-83
2022/05/27 01:00:04;;;;;;;4.20;2.70;;;16.20;45.10;;;;;;5043454;28;20922;-83
2022/05/27 01:02:30;;;;;;;5.32;3.13;;;16.20;45.10;;;;;;5043000;28;20391;-83
2022/05/27 01:04:58;;;;;;;3.45;2.78;;;16.30;44.80;;;;;;5043104;28;20384;-84
2022/05/27 01:07:27;;;;;;;4.38;3.30;;;16.20;44.00;;;;;;5041264;28;20445;-83
2022/05/27 01:09:53;;;;;;;4.20;2.70;;;16.20;44.80;;;;;;5042486;28;20896;-83
2022/05/27 01:12:42;;;;;;;3.78;2.72;;;16.20;45.10;;;;;;5040751;28;20411;-83
2022/05/27 01:15:08;;;;;;;8.15;2.90;;;16.20;45.00;;;;;;5041936;28;20471;-83
2022/05/27 01:18:04;;;;;;;5.10;3.10;;;16.20;45.10;;;;;;5042004;28;20390;-82
2022/05/27 01:20:44;;;;;;;7.05;2.63;;;16.10;45.70;;;;;;5042265;28;20414;-83
2022/05/27 01:23:29;;;;;;;6.25;2.75;;;16.00;46.70;;;;;;5042586;28;20371;-83
2022/05/27 01:26:22;;;;;;;7.45;2.70;;;16.00;47.40;;;;;;5042660;28;20387;-84
2022/05/27 01:29:03;;;;;;;6.82;2.80;;;15.90;48.50;;;;;;5043623;28;20422;-83
2022/05/27 01:31:35;;;;;;;7.07;3.20;;;15.90;49.10;;;;;;5043448;28;20485;-84
2022/05/27 01:34:30;;;;;;;6.93;3.10;;;15.90;49.10;;;;;;5041987;28;20387;-83
2022/05/27 01:37:02;;;;;;;6.47;3.17;;;15.80;50.00;;;;;;5041260;28;20441;-84
2022/05/27 01:39:47;;;;;;;7.45;2.80;;;15.80;50.50;;;;;;5040940;28;20445;-83
2022/05/27 01:42:34;;;;;;;4.80;2.70;;;15.70;51.00;;;;;;5040090;28;20399;-84
2022/05/27 01:45:17;;;;;;;7.55;3.10;;;15.70;50.40;;;;;;5040523;28;20422;-81
2022/05/27 01:47:49;;;;;;;4.10;2.90;;;15.70;50.60;;;;;;5040947;28;20391;-84
2022/05/27 01:50:22;;;;;;;8.68;3.50;;;15.70;51.50;;;;;;5046751;28;20386;-81
2022/05/27 01:53:19;;;;;;;6.93;3.13;;;15.60;52.10;;;;;;5052903;28;20411;-84
2022/05/27 01:56:12;;;;;;;6.93;3.35;;;15.70;52.30;;;;;;5052136;28;20391;-79
2022/05/27 01:58:46;;;;;;;5.73;3.07;;;15.70;52.80;;;;;;5055909;28;20391;-79
2022/05/27 02:01:19;;;;;;;8.83;3.90;;;15.70;52.40;;;;;;5054193;28;20414;-81
2022/05/27 02:03:58;;;;;;;6.47;3.42;;;15.70;52.60;;;;;;5053235;28;20414;-80
2022/05/27 02:06:47;;;;;;;7.55;3.50;;;15.70;52.80;;;;;;5051090;28;20451;-79
2022/05/27 02:09:31;;;;;;;11.80;3.20;;;15.70;52.90;;;;;;5052547;28;20398;-80
2022/05/27 02:12:02;;;;;;;6.88;3.25;;;15.70;52.40;;;;;;5052150;28;20582;-80
2022/05/27 02:15:10;;;;;;;8.73;3.20;;;15.70;52.10;;;;;;5052107;28;20422;-79
2022/05/27 02:17:41;;;;;;;5.55;3.17;;;15.60;52.40;;;;;;5049299;28;20459;-80
2022/05/27 02:20:12;;;;;;;8.70;3.13;;;15.70;52.40;;;;;;5052417;28;20480;-79
2022/05/27 02:22:48;;;;;;;9.32;3.58;;;15.70;52.10;;;;;;5052897;28;20387;-78
2022/05/27 02:25:35;;;;;;;6.15;3.33;;;15.70;51.40;;;;;;5047502;28;20483;-83
2022/05/27 02:28:17;;;;;;;5.93;3.10;;;15.80;51.10;;;;;;5039832;28;20906;-81
2022/05/27 02:30:46;;;;;;;5.00;2.50;;;15.70;53.90;;;;;;5040779;28;20395;-83
2022/05/27 02:36:10;;;;;;;10.07;3.80;;;15.60;54.70;;;;;;5047598;28;20394;-83
2022/05/27 02:38:36;;;;;;;9.18;3.40;;;15.50;55.90;;;;;;5042326;28;20395;-83
2022/05/27 02:41:20;;;;;;;10.10;3.80;;;15.50;56.10;;;;;;5042481;28;20397;-83
2022/05/27 02:43:56;;;;;;;8.57;3.72;;;15.40;56.50;;;;;;5046365;28;20737;-82
2022/05/27 02:46:40;;;;;;;5.22;3.22;;;15.40;57.00;;;;;;5046874;28;20490;-84
2022/05/27 02:49:18;;;;;;;14.50;3.58;;;15.30;57.60;;;;;;5051627;28;20386;-80
2022/05/27 02:51:57;;;;;;;7.53;3.60;;;15.30;57.90;;;;;;5048559;28;20462;-81
2022/05/27 02:54:47;;;;;;;8.32;3.20;;;15.40;57.10;;;;;;5047878;28;20406;-78
2022/05/27 02:57:32;;;;;;;6.95;3.50;;;15.40;57.70;;;;;;5046058;28;20394;-84
2022/05/27 03:00:01;;;;;;;14.10;4.20;;;15.30;58.30;;;;;;5046784;28;20383;-83
2022/05/27 03:02:27;;;;;;;8.70;4.00;;;15.30;59.70;;;;;;5047801;28;20391;-83
2022/05/27 03:04:58;;;;;;;6.47;3.80;;;15.30;59.90;;;;;;5046288;28;20449;-83
2022/05/27 03:07:45;;;;;;;9.38;4.75;;;15.30;62.20;;;;;;5045523;28;20402;-82
2022/05/27 03:10:39;;;;;;;8.32;4.80;;;15.10;65.50;;;;;;5046151;28;20421;-84
2022/05/27 03:13:32;;;;;;;11.40;5.45;;;15.00;67.30;;;;;;5047080;28;20941;-83
2022/05/27 03:16:08;;;;;;;10.93;5.50;;;15.00;69.90;;;;;;5049235;28;20459;-83
2022/05/27 03:18:40;;;;;;;10.45;5.63;;;14.90;72.40;;;;;;5050673;28;20393;-83
2022/05/27 03:21:22;;;;;;;10.75;5.70;;;14.90;72.90;;;;;;5058576;28;20414;-80
2022/05/27 03:24:09;;;;;;;13.13;6.57;;;14.80;75.60;;;;;;5058360;28;20387;-78
2022/05/27 03:27:01;;;;;;;14.23;6.00;;;14.80;76.10;;;;;;5059298;28;20459;-80
2022/05/27 03:29:45;;;;;;;13.73;7.28;;;14.80;78.60;;;;;;5058403;28;20419;-80
2022/05/27 03:32:38;;;;;;;15.47;7.43;;;14.70;82.40;;;;;;5058591;28;20399;-79
2022/05/27 03:35:16;;;;;;;15.70;6.95;;;14.60;87.70;;;;;;5058120;28;20402;-80
2022/05/27 03:37:51;;;;;;;14.45;7.45;;;14.60;88.10;;;;;;5058059;28;20407;-81
2022/05/27 03:40:25;;;;;;;13.15;7.80;;;14.60;89.60;;;;;;5055135;28;20414;-81
2022/05/27 03:42:51;;;;;;;13.47;7.90;;;14.50;90.50;;;;;;5054389;28;20516;-81
2022/05/27 03:45:19;;;;;;;15.30;8.77;;;14.50;91.80;;;;;;5049280;28;20792;-83
2022/05/27 03:47:46;;;;;;;14.82;7.60;;;14.50;97.10;;;;;;5050103;28;20426;-84
2022/05/27 03:50:19;;;;;;;14.32;7.85;;;14.40;98.00;;;;;;5050568;28;20449;-81
2022/05/27 03:52:48;;;;;;;15.27;8.20;;;14.50;96.50;;;;;;5053825;28;20434;-81
2022/05/27 03:55:18;;;;;;;13.85;7.55;;;14.50;98.30;;;;;;5054671;28;20478;-79
2022/05/27 03:57:44;;;;;;;11.73;6.50;;;14.50;96.40;;;;;;5056050;28;20387;-82
2022/05/27 04:00:12;;;;;;;13.93;7.13;;;14.40;96.50;;;;;;5057172;28;20410;-79
2022/05/27 04:02:37;;;;;;;11.60;7.20;;;14.50;97.50;;;;;;5057501;28;20463;-80
2022/05/27 04:05:05;;;;;;;12.90;7.10;;;14.50;97.10;;;;;;5058031;28;20419;-80
2022/05/27 04:07:30;;;;;;;10.27;7.35;;;14.50;97.20;;;;;;5057511;28;20447;-80
2022/05/27 04:09:56;;;;;;;11.43;7.10;;;14.50;97.80;;;;;;5057183;28;20398;-79
2022/05/27 04:12:22;;;;;;;9.10;6.00;;;14.40;99.70;;;;;;5056958;28;20478;-81
2022/05/27 04:14:54;;;;;;;12.02;6.25;;;14.40;97.40;;;;;;5056554;28;20413;-83
2022/05/27 04:17:32;;;;;;;13.07;6.43;;;14.40;97.70;;;;;;5056944;28;20399;-79
2022/05/27 04:20:15;;;;;;;10.67;6.27;;;14.30;99.90;;;;;;5056817;28;20403;-81
2022/05/27 04:22:40;;;;;;;10.50;6.20;;;14.30;99.90;;;;;;5055011;28;20379;-78
2022/05/27 04:25:07;;;;;;;9.60;5.78;;;14.30;99.90;;;;;;5057069;28;20422;-78
2022/05/27 04:27:33;;;;;;;5.15;3.28;;;14.00;99.90;;;;;;5056051;28;20383;-79
2022/05/27 04:29:59;;;;;;;6.38;3.53;;;13.80;99.90;;;;;;5057519;28;20383;-81
2022/05/27 04:32:25;;;;;;;7.88;3.88;;;13.60;99.90;;;;;;5054384;28;20494;-79
2022/05/27 04:34:52;;;;;;;7.70;3.80;;;13.60;99.90;;;;;;5056457;28;20371;-80
2022/05/27 04:37:20;;;;;;;6.13;3.70;;;13.50;99.90;;;;;;5054443;28;20906;-84
2022/05/27 04:39:45;;;;;;;6.10;3.70;;;13.40;99.90;;;;;;5051301;28;20390;-79
2022/05/27 04:42:12;;;;;;;3.80;3.50;;;13.50;99.90;;;;;;5052576;28;20399;-78
2022/05/27 04:44:38;;;;;;;3.58;2.90;;;13.50;99.90;;;;;;5053759;28;20471;-78
2022/05/27 04:47:07;;;;;;;5.57;3.05;;;13.40;99.90;;;;;;5054357;28;20411;-78
2022/05/27 04:52:30;;;;;;;8.32;3.63;;;13.40;99.90;;;;;;5053368;28;20426;-79
2022/05/27 04:54:57;;;;;;;5.00;3.30;;;13.50;99.90;;;;;;5052158;28;20434;-79
2022/05/27 05:36:52;;;;;;;7.78;3.50;;;14.10;97.60;;;;;;6142051;22;20366;-82
2022/05/27 05:51:12;;;;;;;6.00;3.50;;;14.50;89.90;;;;;;5083014;28;20371;-83
2022/05/27 05:53:38;;;;;;;5.95;3.70;;;14.60;91.60;;;;;;5081494;28;20399;-80
2022/05/27 05:56:04;;;;;;;6.13;2.95;;;14.60;84.80;;;;;;5083701;28;20379;-83
2022/05/27 05:58:29;;;;;;;7.15;2.92;;;14.60;78.80;;;;;;5102947;28;20386;-83
2022/05/27 06:00:55;;;;;;;11.07;3.20;;;14.70;84.70;;;;;;5083459;28;20469;-82
2022/05/27 06:03:20;;;;;;;7.93;3.03;;;14.60;82.40;;;;;;5097828;28;20394;-83
2022/05/27 06:05:47;;;;;;;5.47;3.10;;;14.60;78.20;;;;;;5099476;28;20427;-82
2022/05/27 06:08:14;;;;;;;7.40;3.10;;;14.60;75.90;;;;;;5098993;28;20485;-81
2022/05/27 06:10:41;;;;;;;5.40;2.95;;;14.70;72.10;;;;;;5081398;28;20382;-83
2022/05/27 06:13:07;;;;;;;7.50;3.20;;;14.70;75.40;;;;;;5080908;28;20767;-79
2022/05/27 06:15:32;;;;;;;7.87;3.43;;;14.70;75.80;;;;;;5099748;28;20375;-83
2022/05/27 06:17:59;;;;;;;6.43;3.03;;;14.70;74.10;;;;;;5101764;28;20405;-83
2022/05/27 06:20:26;;;;;;;8.50;3.20;;;14.70;73.50;;;;;;5085232;28;20381;-83
2022/05/27 06:22:52;;;;;;;7.50;3.10;;;14.80;74.30;;;;;;5093292;28;20439;-79
2022/05/27 06:25:18;;;;;;;8.60;2.80;;;14.90;71.50;;;;;;5103858;28;20384;-83
2022/05/27 06:27:43;;;;;;;8.03;3.20;;;14.90;71.80;;;;;;5104605;28;20390;-83
2022/05/27 06:35:40;;;;;;;7.87;3.40;;;15.60;65.40;;;;;;5114807;28;20416;-79
2022/05/27 06:38:06;;;;;;;7.70;3.50;;;15.80;59.50;;;;;;5110938;28;20377;-81
2022/05/27 06:40:32;;;;;;;7.22;2.80;;;15.80;59.50;;;;;;5104948;28;20700;-82
2022/05/27 06:42:57;;;;;;;10.30;3.72;;;15.70;63.90;;;;;;5087200;28;20459;-82
2022/05/27 06:45:24;;;;;;;9.87;3.60;;;15.70;64.90;;;;;;5091409;28;20394;-79
2022/05/27 06:47:49;;;;;;;11.98;4.28;;;15.70;66.00;;;;;;5106858;28;20469;-82
2022/05/27 06:50:15;;;;;;;7.77;3.90;;;15.70;63.70;;;;;;5086041;28;20489;-79
2022/05/27 06:52:42;;;;;;;6.63;3.90;;;15.60;60.10;;;;;;5103179;28;20406;-80
2022/05/27 06:55:10;;;;;;;12.00;3.80;;;15.70;62.70;;;;;;5103304;28;20374;-81
2022/05/27 06:57:36;;;;;;;8.07;2.83;;;15.70;62.80;;;;;;5101696;28;20378;-81
2022/05/27 07:00:03;;;;;;;5.13;3.00;;;15.90;62.00;;;;;;5101352;28;20392;-80
2022/05/27 07:02:29;;;;;;;8.32;3.10;;;16.10;62.70;;;;;;5101963;28;20391;-81
2022/05/27 07:04:54;;;;;;;11.67;3.10;;;16.10;58.60;;;;;;5102689;28;20838;-80
2022/05/27 07:07:24;;;;;;;7.73;2.90;;;16.40;53.10;;;;;;5102114;28;20704;-79
2022/05/27 07:09:50;;;;;;;7.03;2.80;;;16.50;55.50;;;;;;5084416;28;20893;-80
2022/05/27 07:12:16;;;;;;;8.57;3.00;;;16.60;52.80;;;;;;5082446;28;20394;-84
2022/05/27 07:14:41;;;;;;;8.70;2.92;;;16.70;48.70;;;;;;5102254;28;20389;-80
2022/05/27 07:17:07;;;;;;;9.00;3.00;;;16.60;49.10;;;;;;5103104;28;20441;-82
2022/05/27 07:19:33;;;;;;;8.30;3.13;;;16.50;50.90;;;;;;5104411;28;20386;-79
2022/05/27 07:21:59;;;;;;;8.53;3.03;;;16.30;55.10;;;;;;5108514;28;20510;-82
2022/05/27 07:24:25;;;;;;;6.50;3.30;;;16.20;56.10;;;;;;5103113;28;20830;-81
2022/05/27 07:26:51;;;;;;;8.70;3.40;;;16.20;55.30;;;;;;5102663;28;20378;-81
2022/05/27 07:29:17;;;;;;;8.25;3.95;;;16.20;52.60;;;;;;5102285;28;20382;-81
2022/05/27 07:31:44;;;;;;;9.57;4.03;;;16.30;54.60;;;;;;5102878;28;20444;-81
2022/05/27 07:34:12;;;;;;;7.70;3.80;;;16.70;51.70;;;;;;5102396;28;20405;-79
2022/05/27 07:36:38;;;;;;;11.38;3.50;;;16.90;48.70;;;;;;5083334;28;20927;-80
2022/05/27 07:39:04;;;;;;;10.40;4.25;;;17.30;47.20;;;;;;5085559;28;20426;-79
2022/05/27 07:41:30;;;;;;;9.70;3.90;;;17.10;47.50;;;;;;5105924;28;20450;-83
2022/05/27 07:43:59;;;;;;;8.73;4.10;;;16.90;48.40;;;;;;5085658;28;20451;-81
2022/05/27 07:46:25;;;;;;;11.00;4.53;;;16.60;51.90;;;;;;5104833;28;20420;-81
2022/05/27 07:48:51;;;;;;;10.40;4.23;;;16.60;52.30;;;;;;5105804;28;20704;-80
2022/05/27 07:51:17;;;;;;;11.85;4.90;;;16.60;54.10;;;;;;5106164;28;20413;-82
2022/05/27 07:53:42;;;;;;;9.50;4.60;;;16.60;55.40;;;;;;5102117;28;20474;-82
2022/05/27 07:56:10;;;;;;;11.60;5.70;;;16.70;53.90;;;;;;5102539;28;20382;-82
2022/05/27 07:58:36;;;;;;;18.50;5.55;;;16.80;53.90;;;;;;5102125;28;20386;-82
2022/05/27 08:01:01;;;;;;;10.98;5.35;;;17.20;49.60;;;;;;5102243;28;20378;-83
2022/05/27 08:03:28;;;;;;;11.85;4.90;;;17.50;48.10;;;;;;5101793;28;20386;-79
2022/05/27 08:05:54;;;;;;;14.07;5.35;;;17.80;44.60;;;;;;5101692;28;20386;-80
2022/05/27 08:08:20;;;;;;;13.05;5.18;;;17.80;43.90;;;;;;5103740;28;20459;-81
2022/05/27 08:10:46;;;;;;;13.90;5.33;;;17.80;44.40;;;;;;5103782;28;20490;-79
2022/05/27 08:13:11;;;;;;;12.93;5.55;;;17.80;46.10;;;;;;5084502;28;20425;-82
2022/05/27 08:15:37;;;;;;;12.97;5.67;;;17.40;45.00;;;;;;5103800;28;20377;-80
2022/05/27 08:18:03;;;;;;;18.13;5.30;;;17.60;46.40;;;;;;5102725;28;20378;-81
2022/05/27 08:20:31;;;;;;;14.73;6.00;;;17.50;46.40;;;;;;5102156;28;20389;-83
2022/05/27 08:22:58;;;;;;;16.13;6.00;;;17.60;47.50;;;;;;5083936;28;20897;-81
2022/05/27 08:25:25;;;;;;;13.15;6.40;;;17.70;45.30;;;;;;5101527;28;20394;-83
2022/05/27 08:27:51;;;;;;;11.40;5.65;;;17.80;43.30;;;;;;5101982;28;20472;-81
2022/05/27 08:30:20;;;;;;;12.00;5.70;;;17.70;41.90;;;;;;5102091;28;20394;-82
2022/05/27 08:32:49;;;;;;;11.88;5.47;;;17.60;45.90;;;;;;5082408;28;20385;-81
2022/05/27 08:38:02;;;;;;;11.82;5.20;;;18.10;38.60;;;;;;5100978;28;20409;-82
2022/05/27 08:40:33;;;;;;;11.80;5.45;;;18.40;39.80;;;;;;5082398;28;20385;-83
2022/05/27 08:43:22;;;;;;;13.45;5.13;;;18.80;39.20;;;;;;5101691;28;20382;-81
2022/05/27 08:46:14;;;;;;;15.57;5.65;;;18.90;38.00;;;;;;5086282;28;20385;-81
2022/05/27 08:48:45;;;;;;;14.35;5.93;;;18.50;36.90;;;;;;5051421;28;20394;-82
2022/05/27 08:51:21;;;;;;;9.18;5.90;;;18.60;37.50;;;;;;5102651;28;20373;-82
2022/05/27 08:54:04;;;;;;;14.40;6.10;;;18.60;36.00;;;;;;5083939;28;20402;-83
2022/05/27 08:59:27;;;;;;;14.95;5.40;;;18.30;35.50;;;;;;5101554;28;20386;-82
2022/05/27 09:02:13;;;;;;;9.70;4.80;;;18.20;35.40;;;;;;5101613;28;20378;-83
2022/05/27 09:05:02;;;;;;;14.93;5.53;;;18.30;32.50;;;;;;5082128;28;20478;-81
2022/05/27 09:07:36;;;;;;;12.15;4.88;;;18.40;30.00;;;;;;5100008;28;20375;-81
2022/05/27 09:10:07;;;;;;;12.30;4.13;;;18.40;30.50;;;;;;5104208;28;20453;-79
2022/05/27 09:12:33;;;;;;;9.70;3.30;;;18.80;27.80;;;;;;5107585;28;20401;-81
2022/05/27 09:15:04;;;;;;;10.50;3.20;;;19.00;24.30;;;;;;5112331;28;20427;-82
2022/05/27 09:17:44;;;;;;;12.53;4.00;;;19.20;21.70;;;;;;5092195;28;20461;-79
2022/05/27 09:20:24;;;;;;;10.68;3.80;;;18.90;23.00;;;;;;5112728;28;20437;-80
2022/05/27 09:22:49;;;;;;;13.55;3.47;;;19.10;23.70;;;;;;5076512;28;20413;-79
2022/05/27 09:25:40;;;;;;;13.25;3.80;;;18.90;22.50;;;;;;5113443;28;20454;-81
2022/05/27 09:28:17;;;;;;;12.95;4.20;;;19.00;22.70;;;;;;5110316;28;20423;-79
2022/05/27 09:30:45;;;;;;;11.95;3.88;;;19.10;21.60;;;;;;5090757;28;20398;-83
2022/05/27 09:33:15;;;;;;;13.15;4.20;;;19.60;21.80;;;;;;5106003;28;20402;-79
2022/05/27 09:35:44;;;;;;;10.02;4.00;;;19.60;20.40;;;;;;5105929;28;20393;-80
2022/05/27 09:38:19;;;;;;;9.80;3.40;;;19.70;21.10;;;;;;5087551;28;20435;-82
2022/05/27 09:40:52;;;;;;;12.38;4.28;;;19.50;22.50;;;;;;5103591;28;20378;-82
2022/05/27 09:43:54;;;;;;;10.68;3.50;;;19.00;23.70;;;;;;5103899;28;20453;-81
2022/05/27 09:46:31;;;;;;;8.13;3.50;;;18.80;25.50;;;;;;5084861;28;20524;-79
2022/05/27 09:48:57;;;;;;;14.82;4.43;;;18.30;26.70;;;;;;5102233;28;20382;-81
2022/05/27 09:51:31;;;;;;;15.90;4.20;;;18.10;27.40;;;;;;5085385;28;20393;-82
2022/05/27 09:54:04;;;;;;;16.83;4.45;;;17.90;27.60;;;;;;5085968;28;20378;-83
2022/05/27 09:56:40;;;;;;;18.25;4.10;;;17.60;29.20;;;;;;5103766;28;20370;-82
2022/05/27 09:59:40;;;;;;;15.20;4.50;;;17.50;31.10;;;;;;5086902;28;20492;-81
2022/05/27 10:02:21;;;;;;;10.35;3.90;;;17.60;30.10;;;;;;5051170;28;20386;-81
2022/05/27 10:04:53;;;;;;;12.77;4.00;;;17.80;29.60;;;;;;5107506;28;20458;-82
2022/05/27 10:07:24;;;;;;;14.93;4.82;;;17.80;29.30;;;;;;5095889;28;20386;-83
2022/05/27 10:09:50;;;;;;;12.07;4.13;;;17.90;28.60;;;;;;5096229;28;20458;-82
2022/05/27 10:12:28;;;;;;;11.80;3.90;;;18.20;28.30;;;;;;5106020;28;20417;-82
2022/05/27 10:14:55;;;;;;;17.57;4.50;;;18.60;28.20;;;;;;5104531;28;20457;-80
2022/05/27 10:17:32;;;;;;;14.55;4.55;;;18.40;25.10;;;;;;5106719;28;20390;-83
2022/05/27 10:20:34;;;;;;;8.77;4.10;;;17.70;26.10;;;;;;5095452;28;20394;-80
2022/05/27 10:23:05;;;;;;;11.37;3.80;;;17.50;28.30;;;;;;5011832;28;20430;-81
2022/05/27 10:25:43;;;;;;;10.20;4.13;;;17.50;28.10;;;;;;5073989;28;20378;-80
2022/05/27 10:28:21;;;;;;;12.75;4.22;;;17.40;29.00;;;;;;5103796;28;20622;-82
2022/05/27 10:31:03;;;;;;;11.75;5.18;;;17.30;28.90;;;;;;5086666;28;20477;-83
2022/05/27 10:56:18;;;;;;;14.02;4.13;;;19.00;21.30;;;;;;4882807;29;20400;-81
2022/05/27 11:02:05;;;;;;;17.98;4.30;;;18.90;22.00;;;;;;4964449;29;20385;-79
2022/05/27 11:04:36;;;;;;;12.23;4.30;;;19.20;20.70;;;;;;5066551;28;20381;-80
2022/05/27 11:07:29;;;;;;;10.67;4.60;;;19.10;20.60;;;;;;5051201;28;20847;-79
2022/05/27 11:10:26;;;;;;;10.45;4.00;;;19.40;19.60;;;;;;5050649;28;20420;-80
2022/05/27 11:16:35;;;;;;;10.13;4.07;;;19.80;18.30;;;;;;5067510;28;20412;-82
2022/05/27 11:19:28;;;;;;;11.35;4.15;;;19.90;17.60;;;;;;5048706;28;20386;-81
2022/05/27 11:22:00;;;;;;;13.93;4.23;;;19.90;17.60;;;;;;5066472;28;20849;-77
2022/05/27 11:24:58;;;;;;;15.90;4.53;;;19.40;19.60;;;;;;5068067;28;20393;-81
2022/05/27 11:27:54;;;;;;;12.35;4.43;;;19.10;22.20;;;;;;5050011;28;20381;-80
2022/05/27 11:30:29;;;;;;;5.70;3.40;;;19.10;19.40;;;;;;5067801;28;20441;-79
2022/05/27 11:33:07;;;;;;;12.40;3.90;;;19.00;19.00;;;;;;5049505;28;20454;-82
2022/05/27 11:36:01;;;;;;;10.07;4.13;;;19.30;19.00;;;;;;5066282;28;20480;-81
2022/05/27 11:38:37;;;;;;;15.50;4.28;;;20.00;17.50;;;;;;5049460;28;20531;-80
2022/05/27 11:41:21;;;;;;;9.32;3.70;;;20.10;16.20;;;;;;5047940;28;20822;-80
2022/05/27 11:43:50;;;;;;;5.55;2.45;;;20.30;17.30;;;;;;5064645;28;20393;-78
2022/05/27 11:46:40;;;;;;;9.75;3.90;;;19.90;16.90;;;;;;5048159;28;20392;-83
2022/05/27 11:49:25;;;;;;;8.68;3.10;;;20.00;17.50;;;;;;5051070;28;20403;-83
2022/05/27 11:52:39;;;;;;;;;;;;;;;;;;;;;
2022/05/27 11:56:00;;;;;;;11.07;3.92;;;18.90;19.40;;;;;;5055867;28;20417;-81
2022/05/27 11:58:53;;;;;;;11.32;3.95;;;19.40;18.00;;;;;;5052072;28;20374;-80
2022/05/27 12:01:36;;;;;;;10.32;3.53;;;19.70;17.20;;;;;;5068282;28;20381;-81
2022/05/27 12:04:30;;;;;;;6.75;3.03;;;19.90;16.10;;;;;;5049376;28;20392;-81
2022/05/27 12:07:21;;;;;;;6.47;2.60;;;19.50;14.40;;;;;;5046625;28;20483;-79
2022/05/27 12:10:16;;;;;;;8.70;3.33;;;19.00;16.00;;;;;;5046784;28;20742;-80
2022/05/27 12:13:30;;;;;;;12.98;3.28;;;18.80;16.80;;;;;;5031041;28;20470;-80
2022/05/27 12:20:14;;;;;;;7.93;2.90;;;19.80;15.70;;;;;;5049762;28;20408;-84
2022/05/27 12:23:28;;;;;;;;;;;;;;;;;;;;;
2022/05/27 12:26:01;;;;;;;9.55;3.10;;;20.50;10.40;;;;;;5051966;28;20480;-82
2022/05/27 12:28:49;;;;;;;11.30;2.90;;;21.00;9.60;;;;;;5029631;28;20393;-84
2022/05/27 12:31:27;;;;;;;7.35;2.88;;;20.90;10.40;;;;;;5045750;28;20771;-84
2022/05/27 12:34:28;;;;;;;9.57;2.97;;;20.30;12.40;;;;;;5046659;28;20416;-83
2022/05/27 12:36:58;;;;;;;13.70;3.50;;;19.40;13.00;;;;;;5046673;28;20389;-80
2022/05/27 12:39:26;;;;;;;7.63;3.90;;;19.20;14.00;;;;;;5046919;28;20393;-81
2022/05/27 12:42:12;;;;;;;11.68;3.30;;;19.20;13.50;;;;;;5046895;28;20802;-82
2022/05/27 12:44:39;;;;;;;8.15;2.90;;;19.10;13.00;;;;;;5046262;28;20381;-81
2022/05/27 12:47:17;;;;;;;10.75;3.00;;;19.50;11.70;;;;;;5044106;28;20397;-85
2022/05/27 12:49:46;;;;;;;9.27;2.80;;;19.80;10.70;;;;;;5046215;28;20432;-80
2022/05/27 12:52:47;;;;;;;8.43;3.35;;;19.80;9.60;;;;;;5044032;28;20405;-78
2022/05/27 12:55:42;;;;;;;7.40;2.05;;;19.60;10.80;;;;;;5061658;28;20416;-81
2022/05/27 13:01:04;;;;;;;7.57;2.55;;;19.40;11.90;;;;;;5031200;28;20393;-85
2022/05/27 13:03:36;;;;;;;12.43;4.13;;;19.50;11.60;;;;;;5047603;28;20720;-78
2022/05/27 13:06:17;;;;;;;16.08;3.72;;;20.10;10.10;;;;;;5046863;28;20811;-82
2022/05/27 13:08:52;;;;;;;10.27;3.80;;;20.60;9.40;;;;;;5048999;28;20396;-85
2022/05/27 13:11:23;;;;;;;17.40;3.78;;;20.60;9.70;;;;;;5049243;28;20390;-80
2022/05/27 13:13:59;;;;;;;14.70;3.42;;;20.30;10.70;;;;;;5048991;28;20976;-82
2022/05/27 13:16:31;;;;;;;9.43;3.22;;;20.30;10.90;;;;;;5068239;28;20373;-82
2022/05/27 13:19:06;;;;;;;13.60;3.83;;;20.00;11.60;;;;;;5069919;28;20377;-84
2022/05/27 13:21:40;;;;;;;11.13;3.20;;;20.00;11.50;;;;;;5068631;28;20373;-80
2022/05/27 13:24:11;;;;;;;10.40;3.20;;;20.60;10.40;;;;;;5049506;28;20397;-80
2022/05/27 13:26:45;;;;;;;8.98;3.10;;;20.40;9.60;;;;;;5068002;28;20393;-83
2022/05/27 13:29:24;;;;;;;9.37;2.80;;;20.70;8.60;;;;;;5052944;28;20378;-81
2022/05/27 13:32:00;;;;;;;8.50;3.10;;;21.00;8.20;;;;;;5069011;28;20443;-84
2022/05/27 13:34:39;;;;;;;14.70;3.30;;;20.70;9.60;;;;;;5071351;28;20429;-82
2022/05/27 13:37:13;;;;;;;13.60;3.37;;;21.10;9.40;;;;;;5073068;28;20435;-81
2022/05/27 13:39:47;;;;;;;14.27;3.58;;;21.00;9.30;;;;;;5061471;28;20385;-80
2022/05/27 13:42:29;;;;;;;8.05;2.70;;;21.60;7.60;;;;;;5060489;28;20389;-82
2022/05/27 13:44:59;;;;;;;14.38;3.33;;;21.60;6.90;;;;;;5059497;28;20548;-80
2022/05/27 13:47:27;;;;;;;7.90;2.35;;;22.20;6.50;;;;;;5059628;28;20388;-80
2022/05/27 13:49:53;;;;;;;10.20;2.50;;;21.30;6.20;;;;;;5041965;28;20484;-84
2022/05/27 13:52:39;;;;;;;10.13;2.92;;;20.60;7.50;;;;;;5043308;28;20409;-83
2022/05/27 13:55:11;;;;;;;12.05;3.33;;;20.70;8.60;;;;;;5042289;28;20453;-83
2022/05/27 13:57:41;;;;;;;8.25;2.13;;;20.30;8.50;;;;;;5059782;28;20377;-83
2022/05/27 14:00:09;;;;;;;11.65;3.30;;;19.80;9.70;;;;;;5043720;28;20435;-81
2022/05/27 14:02:43;;;;;;;8.00;3.10;;;19.40;10.20;;;;;;5027252;28;20420;-84
2022/05/27 14:05:35;;;;;;;4.03;2.43;;;19.30;11.20;;;;;;5055925;23;20425;-83
2022/05/27 14:08:21;;;;;;;8.10;3.20;;;19.80;11.00;;;;;;5062177;28;20781;-84
2022/05/27 14:11:28;;;;;;;17.40;4.57;;;20.00;11.00;;;;;;5060874;28;20389;-82
2022/05/27 14:14:07;;;;;;;12.32;3.53;;;20.40;10.80;;;;;;5061522;28;20420;-83
2022/05/27 14:16:49;;;;;;;8.50;2.80;;;21.30;8.70;;;;;;5067448;28;20464;-86
2022/05/27 14:19:32;;;;;;;13.90;2.95;;;21.70;7.50;;;;;;5065707;28;20421;-83
2022/05/27 14:24:58;;;;;;;11.90;3.72;;;21.00;7.20;;;;;;5061722;28;20396;-84
2022/05/27 14:27:51;;;;;;;9.73;2.60;;;21.70;6.40;;;;;;5061127;28;20381;-81
2022/05/27 14:30:22;;;;;;;9.23;3.00;;;21.00;6.50;;;;;;5063450;28;20386;-82
2022/05/27 14:32:49;;;;;;;6.05;1.90;;;20.70;8.20;;;;;;5063888;28;20472;-83
2022/05/27 14:35:20;;;;;;;8.40;2.77;;;20.10;5.60;;;;;;5060709;28;20409;-81
2022/05/27 14:38:00;;;;;;;10.40;3.40;;;20.60;7.30;;;;;;5060504;28;20389;-82
2022/05/27 14:40:42;;;;;;;5.57;2.13;;;20.90;5.70;;;;;;5063581;28;20771;-81
2022/05/27 14:43:35;;;;;;;6.40;2.05;;;20.70;6.60;;;;;;5063565;28;20463;-83
2022/05/27 14:46:13;;;;;;;7.20;2.95;;;20.70;7.40;;;;;;5062377;28;20400;-84
2022/05/27 14:48:39;;;;;;;8.63;2.42;;;19.80;9.40;;;;;;5063744;28;20397;-82
2022/05/27 14:51:23;;;;;;;13.20;2.80;;;20.00;8.40;;;;;;5063768;28;20396;-83
2022/05/27 14:56:38;;;;;;;7.73;2.40;;;20.80;7.90;;;;;;5062284;28;20424;-82
2022/05/27 14:59:50;;;;;;;9.68;2.47;;;21.60;5.50;;;;;;5063463;28;20393;-83
2022/05/27 15:02:48;;;;;;;10.65;2.97;;;22.30;5.00;;;;;;5062395;28;20386;-84
2022/05/27 15:05:38;;;;;;;11.90;3.15;;;23.90;3.00;;;;;;5035004;28;20772;-83
2022/05/27 15:08:26;;;;;;;7.95;2.20;;;24.00;1.90;;;;;;5080853;22;20433;-79
2022/05/27 15:11:25;;;;;;;7.65;2.60;;;23.30;2.60;;;;;;5066568;28;20374;-79
2022/05/27 15:13:57;;;;;;;8.20;2.50;;;24.30;1.00;;;;;;5047534;28;20408;-79
2022/05/27 15:16:23;;;;;;;11.43;2.70;;;24.80;1.00;;;;;;5072887;28;20379;-79